sensor_id;sensor_type;location;lat;lon;timestamp;P1;durP1;ratioP1;P2;durP2;ratioP2
12665;SDS011;58531;59.050;17.416;2022-11-20T00:02:21;3.40;;;3.10;;
12665;SDS011;58531;59.050;17.416;2022-11-20T00:04:47;3.33;;;3.00;;
12665;SDS011;58531;59.050;17.416;2022-11-20T00:07:14;3.23;;;2.93;;
12665;SDS011;58531;59.050;17.416;2022-11-20T00:09:41;4.40;;;2.80;;
12665;SDS011;58531;59.050;17.416;2022-11-20T00:12:09;3.57;;;2.90;;
12665;SDS011;58531;59.050;17.416;2022-11-20T00:14:36;3.30;;;3.00;;
12665;SDS011;58531;59.050;17.416;2022-11-20T00:17:04;2.87;;;2.60;;
12665;SDS011;58531;59.050;17.416;2022-11-20T00:19:31;3.27;;;2.83;;
12665;SDS011;58531;59.050;17.416;2022-11-20T00:21:58;2.93;;;2.63;;
12665;SDS011;58531;59.050;17.416;2022-11-20T00:24:25;2.57;;;2.37;;
12665;SDS011;58531;59.050;17.416;2022-11-20T00:26:52;2.93;;;2.63;;
12665;SDS011;58531;59.050;17.416;2022-11-20T00:29:19;3.70;;;2.70;;
12665;SDS011;58531;59.050;17.416;2022-11-20T00:31:47;2.57;;;2.33;;
12665;SDS011;58531;59.050;17.416;2022-11-20T00:34:16;2.80;;;2.60;;
12665;SDS011;58531;59.050;17.416;2022-11-20T00:36:42;3.47;;;2.40;;
12665;SDS011;58531;59.050;17.416;2022-11-20T00:39:09;2.77;;;2.50;;
12665;SDS011;58531;59.050;17.416;2022-11-20T00:41:36;2.47;;;2.27;;
12665;SDS011;58531;59.050;17.416;2022-11-20T00:44:03;2.13;;;1.93;;
12665;SDS011;58531;59.050;17.416;2022-11-20T00:46:30;3.60;;;2.13;;
12665;SDS011;58531;59.050;17.416;2022-11-20T00:48:57;2.07;;;1.90;;
12665;SDS011;58531;59.050;17.416;2022-11-20T00:51:26;2.13;;;1.93;;
12665;SDS011;58531;59.050;17.416;2022-11-20T00:53:54;2.20;;;2.00;;
12665;SDS011;58531;59.050;17.416;2022-11-20T00:56:22;2.40;;;1.90;;
12665;SDS011;58531;59.050;17.416;2022-11-20T00:58:49;2.23;;;1.80;;
12665;SDS011;58531;59.050;17.416;2022-11-20T01:01:17;1.73;;;1.60;;
12665;SDS011;58531;59.050;17.416;2022-11-20T01:03:46;1.83;;;1.57;;
12665;SDS011;58531;59.050;17.416;2022-11-20T01:06:16;1.60;;;1.50;;
12665;SDS011;58531;59.050;17.416;2022-11-20T01:08:46;1.53;;;1.43;;
12665;SDS011;58531;59.050;17.416;2022-11-20T01:11:15;1.73;;;1.50;;
12665;SDS011;58531;59.050;17.416;2022-11-20T01:13:44;2.60;;;1.80;;
12665;SDS011;58531;59.050;17.416;2022-11-20T01:16:13;1.77;;;1.47;;
12665;SDS011;58531;59.050;17.416;2022-11-20T01:18:43;2.00;;;1.80;;
12665;SDS011;58531;59.050;17.416;2022-11-20T01:21:12;2.07;;;1.83;;
12665;SDS011;58531;59.050;17.416;2022-11-20T01:23:42;3.43;;;2.13;;
12665;SDS011;58531;59.050;17.416;2022-11-20T01:26:12;1.90;;;1.70;;
12665;SDS011;58531;59.050;17.416;2022-11-20T01:28:41;3.50;;;1.97;;
12665;SDS011;58531;59.050;17.416;2022-11-20T01:31:12;3.53;;;1.73;;
12665;SDS011;58531;59.050;17.416;2022-11-20T01:33:41;1.97;;;1.80;;
12665;SDS011;58531;59.050;17.416;2022-11-20T01:36:10;2.33;;;1.93;;
12665;SDS011;58531;59.050;17.416;2022-11-20T01:38:37;2.50;;;2.00;;
12665;SDS011;58531;59.050;17.416;2022-11-20T01:41:05;2.57;;;2.03;;
12665;SDS011;58531;59.050;17.416;2022-11-20T01:43:34;4.10;;;2.07;;
12665;SDS011;58531;59.050;17.416;2022-11-20T01:48:44;2.53;;;2.00;;
12665;SDS011;58531;59.050;17.416;2022-11-20T01:51:18;4.27;;;2.30;;
12665;SDS011;58531;59.050;17.416;2022-11-20T01:53:51;2.10;;;1.70;;
12665;SDS011;58531;59.050;17.416;2022-11-20T01:56:20;3.30;;;2.20;;
12665;SDS011;58531;59.050;17.416;2022-11-20T01:58:51;2.63;;;2.00;;
12665;SDS011;58531;59.050;17.416;2022-11-20T02:01:21;3.30;;;2.13;;
12665;SDS011;58531;59.050;17.416;2022-11-20T02:03:48;2.13;;;1.90;;
12665;SDS011;58531;59.050;17.416;2022-11-20T02:06:18;3.70;;;2.30;;
12665;SDS011;58531;59.050;17.416;2022-11-20T02:08:48;2.50;;;2.30;;
12665;SDS011;58531;59.050;17.416;2022-11-20T02:11:16;2.93;;;2.17;;
12665;SDS011;58531;59.050;17.416;2022-11-20T02:13:43;2.10;;;1.93;;
12665;SDS011;58531;59.050;17.416;2022-11-20T02:16:20;3.57;;;2.50;;
12665;SDS011;58531;59.050;17.416;2022-11-20T02:18:49;2.43;;;2.10;;
12665;SDS011;58531;59.050;17.416;2022-11-20T02:21:25;2.20;;;2.00;;
12665;SDS011;58531;59.050;17.416;2022-11-20T02:24:04;3.20;;;2.33;;
12665;SDS011;58531;59.050;17.416;2022-11-20T02:26:35;2.60;;;2.10;;
12665;SDS011;58531;59.050;17.416;2022-11-20T02:29:07;2.57;;;2.07;;
12665;SDS011;58531;59.050;17.416;2022-11-20T02:31:38;2.90;;;2.53;;
12665;SDS011;58531;59.050;17.416;2022-11-20T02:34:08;2.60;;;2.37;;
12665;SDS011;58531;59.050;17.416;2022-11-20T02:36:38;3.07;;;2.03;;
12665;SDS011;58531;59.050;17.416;2022-11-20T02:39:09;2.43;;;2.07;;
12665;SDS011;58531;59.050;17.416;2022-11-20T02:41:42;2.53;;;2.20;;
12665;SDS011;58531;59.050;17.416;2022-11-20T02:44:09;3.10;;;2.23;;
12665;SDS011;58531;59.050;17.416;2022-11-20T02:46:36;2.77;;;2.30;;
12665;SDS011;58531;59.050;17.416;2022-11-20T02:49:03;2.87;;;2.13;;
12665;SDS011;58531;59.050;17.416;2022-11-20T02:51:30;2.33;;;2.13;;
12665;SDS011;58531;59.050;17.416;2022-11-20T02:53:57;3.40;;;2.37;;
12665;SDS011;58531;59.050;17.416;2022-11-20T02:56:26;2.53;;;1.97;;
12665;SDS011;58531;59.050;17.416;2022-11-20T02:58:53;2.40;;;2.20;;
12665;SDS011;58531;59.050;17.416;2022-11-20T03:01:20;3.50;;;2.27;;
12665;SDS011;58531;59.050;17.416;2022-11-20T03:03:47;2.57;;;2.33;;
12665;SDS011;58531;59.050;17.416;2022-11-20T03:06:14;2.23;;;1.90;;
12665;SDS011;58531;59.050;17.416;2022-11-20T03:08:41;3.37;;;2.20;;
12665;SDS011;58531;59.050;17.416;2022-11-20T03:11:08;2.80;;;2.30;;
12665;SDS011;58531;59.050;17.416;2022-11-20T03:13:36;2.53;;;2.10;;
12665;SDS011;58531;59.050;17.416;2022-11-20T03:16:07;3.27;;;2.00;;
12665;SDS011;58531;59.050;17.416;2022-11-20T03:18:36;2.93;;;2.27;;
12665;SDS011;58531;59.050;17.416;2022-11-20T03:21:03;2.97;;;2.20;;
12665;SDS011;58531;59.050;17.416;2022-11-20T03:23:31;2.83;;;2.40;;
12665;SDS011;58531;59.050;17.416;2022-11-20T03:26:09;2.67;;;2.40;;
12665;SDS011;58531;59.050;17.416;2022-11-20T03:28:39;2.47;;;2.03;;
12665;SDS011;58531;59.050;17.416;2022-11-20T03:31:07;2.27;;;1.97;;
12665;SDS011;58531;59.050;17.416;2022-11-20T03:33:36;3.00;;;2.20;;
12665;SDS011;58531;59.050;17.416;2022-11-20T03:36:03;2.20;;;2.00;;
12665;SDS011;58531;59.050;17.416;2022-11-20T03:38:31;3.20;;;2.67;;
12665;SDS011;58531;59.050;17.416;2022-11-20T03:40:59;2.80;;;2.30;;
12665;SDS011;58531;59.050;17.416;2022-11-20T03:43:27;2.50;;;2.23;;
12665;SDS011;58531;59.050;17.416;2022-11-20T03:45:56;3.57;;;2.20;;
12665;SDS011;58531;59.050;17.416;2022-11-20T03:48:22;3.37;;;2.27;;
12665;SDS011;58531;59.050;17.416;2022-11-20T03:50:50;2.67;;;2.30;;
12665;SDS011;58531;59.050;17.416;2022-11-20T03:53:17;3.20;;;2.23;;
12665;SDS011;58531;59.050;17.416;2022-11-20T03:55:44;4.53;;;1.80;;
12665;SDS011;58531;59.050;17.416;2022-11-20T03:58:11;2.47;;;2.13;;
12665;SDS011;58531;59.050;17.416;2022-11-20T04:00:38;2.70;;;2.47;;
12665;SDS011;58531;59.050;17.416;2022-11-20T04:03:07;2.20;;;2.00;;
12665;SDS011;58531;59.050;17.416;2022-11-20T04:05:34;2.10;;;1.90;;
12665;SDS011;58531;59.050;17.416;2022-11-20T04:08:01;2.50;;;2.10;;
12665;SDS011;58531;59.050;17.416;2022-11-20T04:10:29;2.57;;;2.00;;
12665;SDS011;58531;59.050;17.416;2022-11-20T04:12:58;2.33;;;2.13;;
12665;SDS011;58531;59.050;17.416;2022-11-20T04:15:24;2.13;;;1.83;;
12665;SDS011;58531;59.050;17.416;2022-11-20T04:17:53;2.47;;;2.13;;
12665;SDS011;58531;59.050;17.416;2022-11-20T04:20:22;2.97;;;2.20;;
12665;SDS011;58531;59.050;17.416;2022-11-20T04:22:49;1.83;;;1.60;;
12665;SDS011;58531;59.050;17.416;2022-11-20T04:25:19;3.13;;;2.17;;
12665;SDS011;58531;59.050;17.416;2022-11-20T04:27:47;2.87;;;2.03;;
12665;SDS011;58531;59.050;17.416;2022-11-20T04:30:13;2.40;;;2.03;;
12665;SDS011;58531;59.050;17.416;2022-11-20T04:32:40;2.03;;;1.90;;
12665;SDS011;58531;59.050;17.416;2022-11-20T04:35:07;2.93;;;2.20;;
12665;SDS011;58531;59.050;17.416;2022-11-20T04:37:36;4.57;;;1.87;;
12665;SDS011;58531;59.050;17.416;2022-11-20T04:40:03;1.63;;;1.53;;
12665;SDS011;58531;59.050;17.416;2022-11-20T04:42:30;2.30;;;2.00;;
12665;SDS011;58531;59.050;17.416;2022-11-20T04:44:57;3.20;;;2.00;;
12665;SDS011;58531;59.050;17.416;2022-11-20T04:47:24;1.90;;;1.70;;
12665;SDS011;58531;59.050;17.416;2022-11-20T04:49:51;2.80;;;1.90;;
12665;SDS011;58531;59.050;17.416;2022-11-20T04:52:18;2.57;;;2.07;;
12665;SDS011;58531;59.050;17.416;2022-11-20T04:54:47;2.40;;;2.00;;
12665;SDS011;58531;59.050;17.416;2022-11-20T04:57:14;2.23;;;1.57;;
12665;SDS011;58531;59.050;17.416;2022-11-20T04:59:41;2.57;;;2.00;;
12665;SDS011;58531;59.050;17.416;2022-11-20T05:02:09;2.07;;;1.70;;
12665;SDS011;58531;59.050;17.416;2022-11-20T05:04:36;2.10;;;1.63;;
12665;SDS011;58531;59.050;17.416;2022-11-20T05:07:03;3.30;;;2.20;;
12665;SDS011;58531;59.050;17.416;2022-11-20T05:09:30;3.73;;;1.83;;
12665;SDS011;58531;59.050;17.416;2022-11-20T05:11:59;2.37;;;2.07;;
12665;SDS011;58531;59.050;17.416;2022-11-20T05:14:26;2.43;;;1.97;;
12665;SDS011;58531;59.050;17.416;2022-11-20T05:16:53;2.93;;;2.10;;
12665;SDS011;58531;59.050;17.416;2022-11-20T05:19:19;2.17;;;1.70;;
12665;SDS011;58531;59.050;17.416;2022-11-20T05:21:47;2.17;;;1.60;;
12665;SDS011;58531;59.050;17.416;2022-11-20T05:24:14;2.03;;;1.80;;
12665;SDS011;58531;59.050;17.416;2022-11-20T05:26:41;2.37;;;1.67;;
12665;SDS011;58531;59.050;17.416;2022-11-20T05:29:11;2.07;;;1.80;;
12665;SDS011;58531;59.050;17.416;2022-11-20T05:31:38;2.10;;;1.90;;
12665;SDS011;58531;59.050;17.416;2022-11-20T05:34:06;2.20;;;1.87;;
12665;SDS011;58531;59.050;17.416;2022-11-20T05:36:34;2.23;;;1.90;;
12665;SDS011;58531;59.050;17.416;2022-11-20T05:39:01;2.03;;;1.83;;
12665;SDS011;58531;59.050;17.416;2022-11-20T05:41:28;2.20;;;1.70;;
12665;SDS011;58531;59.050;17.416;2022-11-20T05:43:55;3.03;;;2.10;;
12665;SDS011;58531;59.050;17.416;2022-11-20T05:46:25;1.90;;;1.80;;
12665;SDS011;58531;59.050;17.416;2022-11-20T05:48:52;2.20;;;2.00;;
12665;SDS011;58531;59.050;17.416;2022-11-20T05:51:19;2.37;;;1.63;;
12665;SDS011;58531;59.050;17.416;2022-11-20T05:53:46;2.53;;;1.70;;
12665;SDS011;58531;59.050;17.416;2022-11-20T05:56:14;1.93;;;1.57;;
12665;SDS011;58531;59.050;17.416;2022-11-20T05:58:43;1.73;;;1.60;;
12665;SDS011;58531;59.050;17.416;2022-11-20T06:01:12;2.00;;;1.70;;
12665;SDS011;58531;59.050;17.416;2022-11-20T06:03:42;3.70;;;1.87;;
12665;SDS011;58531;59.050;17.416;2022-11-20T06:06:11;1.83;;;1.63;;
12665;SDS011;58531;59.050;17.416;2022-11-20T06:08:38;3.33;;;1.83;;
12665;SDS011;58531;59.050;17.416;2022-11-20T06:11:06;2.10;;;1.80;;
12665;SDS011;58531;59.050;17.416;2022-11-20T06:13:36;2.10;;;1.40;;
12665;SDS011;58531;59.050;17.416;2022-11-20T06:16:03;1.90;;;1.30;;
12665;SDS011;58531;59.050;17.416;2022-11-20T06:18:31;3.13;;;1.60;;
12665;SDS011;58531;59.050;17.416;2022-11-20T06:21:03;1.60;;;1.50;;
12665;SDS011;58531;59.050;17.416;2022-11-20T06:23:32;1.67;;;1.53;;
12665;SDS011;58531;59.050;17.416;2022-11-20T06:26:01;1.60;;;1.40;;
12665;SDS011;58531;59.050;17.416;2022-11-20T06:28:29;1.93;;;1.57;;
12665;SDS011;58531;59.050;17.416;2022-11-20T06:30:56;3.70;;;1.27;;
12665;SDS011;58531;59.050;17.416;2022-11-20T06:33:23;2.63;;;1.60;;
12665;SDS011;58531;59.050;17.416;2022-11-20T06:36:00;1.67;;;1.30;;
12665;SDS011;58531;59.050;17.416;2022-11-20T06:38:29;2.07;;;1.67;;
12665;SDS011;58531;59.050;17.416;2022-11-20T06:40:56;1.90;;;1.70;;
12665;SDS011;58531;59.050;17.416;2022-11-20T06:43:23;1.80;;;1.40;;
12665;SDS011;58531;59.050;17.416;2022-11-20T06:45:51;1.43;;;1.33;;
12665;SDS011;58531;59.050;17.416;2022-11-20T06:48:19;3.70;;;1.67;;
12665;SDS011;58531;59.050;17.416;2022-11-20T06:50:46;1.87;;;1.40;;
12665;SDS011;58531;59.050;17.416;2022-11-20T06:53:13;1.80;;;1.30;;
12665;SDS011;58531;59.050;17.416;2022-11-20T06:55:43;3.57;;;1.50;;
12665;SDS011;58531;59.050;17.416;2022-11-20T06:58:14;1.97;;;1.57;;
12665;SDS011;58531;59.050;17.416;2022-11-20T07:00:41;1.63;;;1.43;;
12665;SDS011;58531;59.050;17.416;2022-11-20T07:03:10;1.80;;;1.50;;
12665;SDS011;58531;59.050;17.416;2022-11-20T07:05:38;1.60;;;1.43;;
12665;SDS011;58531;59.050;17.416;2022-11-20T07:08:05;2.93;;;1.53;;
12665;SDS011;58531;59.050;17.416;2022-11-20T07:10:32;1.67;;;1.47;;
12665;SDS011;58531;59.050;17.416;2022-11-20T07:13:01;2.40;;;1.80;;
12665;SDS011;58531;59.050;17.416;2022-11-20T07:15:28;2.53;;;1.97;;
12665;SDS011;58531;59.050;17.416;2022-11-20T07:17:55;1.73;;;1.60;;
12665;SDS011;58531;59.050;17.416;2022-11-20T07:20:24;13.53;;;7.67;;
12665;SDS011;58531;59.050;17.416;2022-11-20T07:22:53;11.53;;;6.63;;
12665;SDS011;58531;59.050;17.416;2022-11-20T07:25:21;6.70;;;4.53;;
12665;SDS011;58531;59.050;17.416;2022-11-20T07:27:48;2.40;;;1.60;;
12665;SDS011;58531;59.050;17.416;2022-11-20T07:30:17;1.90;;;1.70;;
12665;SDS011;58531;59.050;17.416;2022-11-20T07:32:46;3.23;;;1.57;;
12665;SDS011;58531;59.050;17.416;2022-11-20T07:35:13;2.13;;;1.63;;
12665;SDS011;58531;59.050;17.416;2022-11-20T07:37:40;1.50;;;1.40;;
12665;SDS011;58531;59.050;17.416;2022-11-20T07:40:08;1.50;;;1.33;;
12665;SDS011;58531;59.050;17.416;2022-11-20T07:42:36;1.80;;;1.70;;
12665;SDS011;58531;59.050;17.416;2022-11-20T07:45:03;1.57;;;1.30;;
12665;SDS011;58531;59.050;17.416;2022-11-20T07:47:35;2.90;;;1.60;;
12665;SDS011;58531;59.050;17.416;2022-11-20T07:50:03;2.33;;;1.40;;
12665;SDS011;58531;59.050;17.416;2022-11-20T07:52:30;2.00;;;1.60;;
12665;SDS011;58531;59.050;17.416;2022-11-20T07:54:57;2.47;;;1.53;;
12665;SDS011;58531;59.050;17.416;2022-11-20T07:57:24;1.27;;;1.17;;
12665;SDS011;58531;59.050;17.416;2022-11-20T07:59:52;1.60;;;1.50;;
12665;SDS011;58531;59.050;17.416;2022-11-20T08:02:20;1.60;;;1.50;;
12665;SDS011;58531;59.050;17.416;2022-11-20T08:04:48;1.73;;;1.40;;
12665;SDS011;58531;59.050;17.416;2022-11-20T08:07:15;2.17;;;1.40;;
12665;SDS011;58531;59.050;17.416;2022-11-20T08:09:42;1.50;;;1.40;;
12665;SDS011;58531;59.050;17.416;2022-11-20T08:12:09;1.60;;;1.33;;
12665;SDS011;58531;59.050;17.416;2022-11-20T08:15:00;1.40;;;1.30;;
12665;SDS011;58531;59.050;17.416;2022-11-20T08:17:27;1.50;;;1.40;;
12665;SDS011;58531;59.050;17.416;2022-11-20T08:19:56;1.53;;;1.30;;
12665;SDS011;58531;59.050;17.416;2022-11-20T08:22:23;3.53;;;2.57;;
12665;SDS011;58531;59.050;17.416;2022-11-20T08:24:50;3.07;;;2.50;;
12665;SDS011;58531;59.050;17.416;2022-11-20T08:27:17;1.60;;;1.50;;
12665;SDS011;58531;59.050;17.416;2022-11-20T08:29:44;2.23;;;1.93;;
12665;SDS011;58531;59.050;17.416;2022-11-20T08:32:11;1.60;;;1.50;;
12665;SDS011;58531;59.050;17.416;2022-11-20T08:34:38;1.77;;;1.40;;
12665;SDS011;58531;59.050;17.416;2022-11-20T08:37:06;2.40;;;2.10;;
12665;SDS011;58531;59.050;17.416;2022-11-20T08:39:33;2.43;;;2.00;;
12665;SDS011;58531;59.050;17.416;2022-11-20T08:42:01;4.90;;;3.47;;
12665;SDS011;58531;59.050;17.416;2022-11-20T08:44:28;1.90;;;1.80;;
12665;SDS011;58531;59.050;17.416;2022-11-20T08:46:54;2.50;;;1.60;;
12665;SDS011;58531;59.050;17.416;2022-11-20T08:49:22;1.43;;;1.33;;
12665;SDS011;58531;59.050;17.416;2022-11-20T08:51:48;1.70;;;1.17;;
12665;SDS011;58531;59.050;17.416;2022-11-20T08:54:20;1.73;;;1.20;;
12665;SDS011;58531;59.050;17.416;2022-11-20T08:56:47;1.53;;;1.33;;
12665;SDS011;58531;59.050;17.416;2022-11-20T08:59:14;2.37;;;1.27;;
12665;SDS011;58531;59.050;17.416;2022-11-20T09:01:41;1.50;;;1.30;;
12665;SDS011;58531;59.050;17.416;2022-11-20T09:04:08;1.20;;;1.10;;
12665;SDS011;58531;59.050;17.416;2022-11-20T09:06:35;1.50;;;1.20;;
12665;SDS011;58531;59.050;17.416;2022-11-20T09:09:02;1.20;;;1.10;;
12665;SDS011;58531;59.050;17.416;2022-11-20T09:11:32;2.20;;;1.43;;
12665;SDS011;58531;59.050;17.416;2022-11-20T09:14:00;1.57;;;1.10;;
12665;SDS011;58531;59.050;17.416;2022-11-20T09:16:27;1.70;;;1.37;;
12665;SDS011;58531;59.050;17.416;2022-11-20T09:18:54;1.53;;;1.20;;
12665;SDS011;58531;59.050;17.416;2022-11-20T09:21:21;2.40;;;1.60;;
12665;SDS011;58531;59.050;17.416;2022-11-20T09:23:49;2.00;;;1.30;;
12665;SDS011;58531;59.050;17.416;2022-11-20T09:26:16;2.80;;;1.40;;
12665;SDS011;58531;59.050;17.416;2022-11-20T09:28:46;1.63;;;1.40;;
12665;SDS011;58531;59.050;17.416;2022-11-20T09:31:15;2.37;;;1.57;;
12665;SDS011;58531;59.050;17.416;2022-11-20T09:33:47;2.20;;;1.40;;
12665;SDS011;58531;59.050;17.416;2022-11-20T09:36:14;1.87;;;1.20;;
12665;SDS011;58531;59.050;17.416;2022-11-20T09:38:43;1.40;;;1.30;;
12665;SDS011;58531;59.050;17.416;2022-11-20T09:41:14;1.40;;;1.30;;
12665;SDS011;58531;59.050;17.416;2022-11-20T09:44:00;1.37;;;1.13;;
12665;SDS011;58531;59.050;17.416;2022-11-20T09:46:40;1.40;;;1.30;;
12665;SDS011;58531;59.050;17.416;2022-11-20T09:49:17;1.10;;;0.90;;
12665;SDS011;58531;59.050;17.416;2022-11-20T09:51:57;1.40;;;1.17;;
12665;SDS011;58531;59.050;17.416;2022-11-20T09:54:27;1.43;;;1.20;;
12665;SDS011;58531;59.050;17.416;2022-11-20T09:56:59;1.70;;;0.93;;
12665;SDS011;58531;59.050;17.416;2022-11-20T09:59:31;1.30;;;0.97;;
12665;SDS011;58531;59.050;17.416;2022-11-20T10:02:03;1.53;;;1.20;;
12665;SDS011;58531;59.050;17.416;2022-11-20T10:04:43;1.30;;;1.00;;
12665;SDS011;58531;59.050;17.416;2022-11-20T10:07:16;3.40;;;1.20;;
12665;SDS011;58531;59.050;17.416;2022-11-20T10:09:49;2.50;;;1.10;;
12665;SDS011;58531;59.050;17.416;2022-11-20T10:12:22;2.70;;;1.57;;
12665;SDS011;58531;59.050;17.416;2022-11-20T10:15:01;1.40;;;1.30;;
12665;SDS011;58531;59.050;17.416;2022-11-20T10:20:30;1.43;;;1.10;;
12665;SDS011;58531;59.050;17.416;2022-11-20T10:23:21;3.10;;;2.10;;
12665;SDS011;58531;59.050;17.416;2022-11-20T10:26:01;1.60;;;1.50;;
12665;SDS011;58531;59.050;17.416;2022-11-20T10:28:32;1.93;;;1.20;;
12665;SDS011;58531;59.050;17.416;2022-11-20T10:31:17;1.97;;;1.53;;
12665;SDS011;58531;59.050;17.416;2022-11-20T10:33:55;1.87;;;1.50;;
12665;SDS011;58531;59.050;17.416;2022-11-20T10:36:27;4.50;;;2.77;;
12665;SDS011;58531;59.050;17.416;2022-11-20T10:38:58;1.73;;;1.30;;
12665;SDS011;58531;59.050;17.416;2022-11-20T10:41:31;1.70;;;1.07;;
12665;SDS011;58531;59.050;17.416;2022-11-20T10:44:03;1.43;;;1.30;;
12665;SDS011;58531;59.050;17.416;2022-11-20T10:46:39;1.33;;;1.00;;
12665;SDS011;58531;59.050;17.416;2022-11-20T10:49:11;2.03;;;1.17;;
12665;SDS011;58531;59.050;17.416;2022-11-20T10:51:44;1.10;;;1.00;;
12665;SDS011;58531;59.050;17.416;2022-11-20T10:54:25;5.53;;;2.50;;
12665;SDS011;58531;59.050;17.416;2022-11-20T10:57:02;1.83;;;1.20;;
12665;SDS011;58531;59.050;17.416;2022-11-20T11:02:34;2.27;;;1.40;;
12665;SDS011;58531;59.050;17.416;2022-11-20T11:05:10;1.33;;;1.20;;
12665;SDS011;58531;59.050;17.416;2022-11-20T11:07:45;1.60;;;1.50;;
12665;SDS011;58531;59.050;17.416;2022-11-20T11:10:18;2.50;;;2.30;;
12665;SDS011;58531;59.050;17.416;2022-11-20T11:12:49;4.63;;;2.30;;
12665;SDS011;58531;59.050;17.416;2022-11-20T11:15:24;2.67;;;1.73;;
12665;SDS011;58531;59.050;17.416;2022-11-20T11:17:55;3.30;;;2.43;;
12665;SDS011;58531;59.050;17.416;2022-11-20T11:20:23;4.90;;;2.53;;
12665;SDS011;58531;59.050;17.416;2022-11-20T11:22:52;6.60;;;2.80;;
12665;SDS011;58531;59.050;17.416;2022-11-20T11:25:28;2.70;;;2.17;;
12665;SDS011;58531;59.050;17.416;2022-11-20T11:27:59;3.17;;;2.00;;
12665;SDS011;58531;59.050;17.416;2022-11-20T11:30:28;2.50;;;1.90;;
12665;SDS011;58531;59.050;17.416;2022-11-20T11:33:05;4.07;;;1.70;;
12665;SDS011;58531;59.050;17.416;2022-11-20T11:35:32;2.40;;;1.80;;
12665;SDS011;58531;59.050;17.416;2022-11-20T11:38:04;2.07;;;1.57;;
12665;SDS011;58531;59.050;17.416;2022-11-20T11:40:33;2.30;;;2.10;;
12665;SDS011;58531;59.050;17.416;2022-11-20T11:43:04;2.97;;;1.50;;
12665;SDS011;58531;59.050;17.416;2022-11-20T11:45:54;2.53;;;1.87;;
12665;SDS011;58531;59.050;17.416;2022-11-20T11:48:21;1.80;;;1.70;;
12665;SDS011;58531;59.050;17.416;2022-11-20T11:50:49;1.80;;;1.60;;
12665;SDS011;58531;59.050;17.416;2022-11-20T11:53:17;1.40;;;1.30;;
12665;SDS011;58531;59.050;17.416;2022-11-20T11:55:46;1.53;;;1.10;;
12665;SDS011;58531;59.050;17.416;2022-11-20T11:58:24;1.23;;;1.13;;
12665;SDS011;58531;59.050;17.416;2022-11-20T12:01:14;1.60;;;1.33;;
12665;SDS011;58531;59.050;17.416;2022-11-20T12:03:55;1.47;;;1.10;;
12665;SDS011;58531;59.050;17.416;2022-11-20T12:06:29;1.30;;;1.20;;
12665;SDS011;58531;59.050;17.416;2022-11-20T12:08:58;1.73;;;1.17;;
12665;SDS011;58531;59.050;17.416;2022-11-20T12:11:30;1.60;;;1.30;;
12665;SDS011;58531;59.050;17.416;2022-11-20T12:14:07;1.40;;;1.10;;
12665;SDS011;58531;59.050;17.416;2022-11-20T12:16:40;3.40;;;1.20;;
12665;SDS011;58531;59.050;17.416;2022-11-20T12:19:09;2.47;;;2.27;;
12665;SDS011;58531;59.050;17.416;2022-11-20T12:21:40;2.03;;;1.10;;
12665;SDS011;58531;59.050;17.416;2022-11-20T12:24:28;1.53;;;1.43;;
12665;SDS011;58531;59.050;17.416;2022-11-20T12:30:15;2.67;;;1.23;;
12665;SDS011;58531;59.050;17.416;2022-11-20T12:35:51;1.47;;;1.00;;
12665;SDS011;58531;59.050;17.416;2022-11-20T12:38:39;2.33;;;1.60;;
12665;SDS011;58531;59.050;17.416;2022-11-20T12:41:39;1.60;;;1.40;;
12665;SDS011;58531;59.050;17.416;2022-11-20T12:44:39;1.17;;;1.03;;
12665;SDS011;58531;59.050;17.416;2022-11-20T12:47:38;1.40;;;1.23;;
12665;SDS011;58531;59.050;17.416;2022-11-20T12:50:21;2.20;;;1.87;;
12665;SDS011;58531;59.050;17.416;2022-11-20T12:52:59;1.50;;;1.23;;
12665;SDS011;58531;59.050;17.416;2022-11-20T12:55:33;1.40;;;1.30;;
12665;SDS011;58531;59.050;17.416;2022-11-20T12:58:10;1.20;;;1.10;;
12665;SDS011;58531;59.050;17.416;2022-11-20T13:00:43;1.33;;;1.23;;
12665;SDS011;58531;59.050;17.416;2022-11-20T13:03:25;1.77;;;1.30;;
12665;SDS011;58531;59.050;17.416;2022-11-20T13:06:05;1.40;;;1.30;;
12665;SDS011;58531;59.050;17.416;2022-11-20T13:08:40;1.33;;;1.23;;
12665;SDS011;58531;59.050;17.416;2022-11-20T13:11:11;2.27;;;1.30;;
12665;SDS011;58531;59.050;17.416;2022-11-20T13:13:47;1.87;;;1.57;;
12665;SDS011;58531;59.050;17.416;2022-11-20T13:16:30;1.37;;;1.27;;
12665;SDS011;58531;59.050;17.416;2022-11-20T13:19:03;1.20;;;1.07;;
12665;SDS011;58531;59.050;17.416;2022-11-20T13:21:37;1.20;;;1.10;;
12665;SDS011;58531;59.050;17.416;2022-11-20T13:24:07;1.77;;;1.10;;
12665;SDS011;58531;59.050;17.416;2022-11-20T13:26:48;1.43;;;1.03;;
12665;SDS011;58531;59.050;17.416;2022-11-20T13:29:25;6.50;;;3.50;;
12665;SDS011;58531;59.050;17.416;2022-11-20T13:32:00;2.00;;;1.57;;
12665;SDS011;58531;59.050;17.416;2022-11-20T13:34:30;2.47;;;1.80;;
12665;SDS011;58531;59.050;17.416;2022-11-20T13:36:57;1.97;;;1.20;;
12665;SDS011;58531;59.050;17.416;2022-11-20T13:39:27;1.57;;;1.47;;
12665;SDS011;58531;59.050;17.416;2022-11-20T13:41:55;1.57;;;1.30;;
12665;SDS011;58531;59.050;17.416;2022-11-20T13:44:24;1.40;;;1.30;;
12665;SDS011;58531;59.050;17.416;2022-11-20T13:46:53;2.20;;;1.50;;
12665;SDS011;58531;59.050;17.416;2022-11-20T13:49:22;2.23;;;1.70;;
12665;SDS011;58531;59.050;17.416;2022-11-20T13:51:54;1.40;;;1.20;;
12665;SDS011;58531;59.050;17.416;2022-11-20T13:54:40;2.03;;;1.47;;
12665;SDS011;58531;59.050;17.416;2022-11-20T14:00:19;1.47;;;1.37;;
12665;SDS011;58531;59.050;17.416;2022-11-20T14:02:50;1.87;;;1.47;;
12665;SDS011;58531;59.050;17.416;2022-11-20T14:05:27;2.37;;;1.17;;
12665;SDS011;58531;59.050;17.416;2022-11-20T14:07:57;1.83;;;1.10;;
12665;SDS011;58531;59.050;17.416;2022-11-20T14:10:26;1.33;;;1.23;;
12665;SDS011;58531;59.050;17.416;2022-11-20T14:12:54;1.37;;;1.10;;
12665;SDS011;58531;59.050;17.416;2022-11-20T14:15:24;1.80;;;1.43;;
12665;SDS011;58531;59.050;17.416;2022-11-20T14:17:53;1.57;;;1.40;;
12665;SDS011;58531;59.050;17.416;2022-11-20T14:20:20;3.97;;;2.00;;
12665;SDS011;58531;59.050;17.416;2022-11-20T14:22:51;2.60;;;1.63;;
12665;SDS011;58531;59.050;17.416;2022-11-20T14:25:20;2.63;;;2.13;;
12665;SDS011;58531;59.050;17.416;2022-11-20T14:27:53;3.40;;;1.80;;
12665;SDS011;58531;59.050;17.416;2022-11-20T14:30:22;4.73;;;3.00;;
12665;SDS011;58531;59.050;17.416;2022-11-20T14:32:50;4.93;;;2.50;;
12665;SDS011;58531;59.050;17.416;2022-11-20T14:35:21;4.80;;;2.33;;
12665;SDS011;58531;59.050;17.416;2022-11-20T14:37:51;4.90;;;2.27;;
12665;SDS011;58531;59.050;17.416;2022-11-20T14:40:26;5.00;;;2.60;;
12665;SDS011;58531;59.050;17.416;2022-11-20T14:42:56;3.93;;;2.20;;
12665;SDS011;58531;59.050;17.416;2022-11-20T14:45:24;3.03;;;2.10;;
12665;SDS011;58531;59.050;17.416;2022-11-20T14:47:52;3.10;;;2.23;;
12665;SDS011;58531;59.050;17.416;2022-11-20T14:50:22;2.90;;;2.10;;
12665;SDS011;58531;59.050;17.416;2022-11-20T14:52:52;3.30;;;2.47;;
12665;SDS011;58531;59.050;17.416;2022-11-20T14:55:31;3.03;;;2.03;;
12665;SDS011;58531;59.050;17.416;2022-11-20T14:58:02;3.87;;;2.83;;
12665;SDS011;58531;59.050;17.416;2022-11-20T15:00:31;6.00;;;3.23;;
12665;SDS011;58531;59.050;17.416;2022-11-20T15:02:59;3.70;;;2.27;;
12665;SDS011;58531;59.050;17.416;2022-11-20T15:05:44;4.20;;;2.10;;
12665;SDS011;58531;59.050;17.416;2022-11-20T15:08:12;2.80;;;2.40;;
12665;SDS011;58531;59.050;17.416;2022-11-20T15:10:44;2.77;;;1.90;;